Terminal Aerodrome Forecast
Issued by NWS Charleston, WV

Current Version | Previous Version | Text Only | Print | Product List | Glossary Off
Versions: 1 2 3 4 5 6 7 8 9 10 11 12 13 14 15 16 17 18 19 20 21 22 23

555
FTUS41 KRLX 261120
TAFBKW
TAF
KBKW 261120Z 2612/2712 22004KT P6SM FEW250
     FM261400 27007KT P6SM FEW070
     FM261600 27009G15KT P6SM FEW140
     FM270000 30008KT P6SM FEW050
     FM270400 29005KT P6SM FEW250
     FM270900 28007KT P6SM BKN070=

USA.gov is the U.S. government's official web portal to all federal, state and local government web resources and services.